Time;durP1;ratioP1;P1;durP2;ratioP2;P2;SDS_P1;SDS_P2;PMS_P1;PMS_P2;Temp;Humidity;BMP_temperature;BMP_pressure;BME280_temperature;BME280_humidity;BME280_pressure;Samples;Min_cycle;Max_cycle;Signal;HPM_P1;HPM_P2
2022/07/09 00:01:59;;;;;;;2.88;1.60;;;19.40;88.80;;;;;;5012234;28;20025;-77
2022/07/09 00:04:25;;;;;;;3.58;1.75;;;19.30;88.70;;;;;;5012927;28;20414;-77
2022/07/09 00:06:50;;;;;;;3.45;1.52;;;19.40;88.80;;;;;;5030369;28;20032;-78
2022/07/09 00:09:16;;;;;;;3.67;1.77;;;19.40;88.90;;;;;;5029316;28;20068;-78
2022/07/09 00:11:41;;;;;;;2.08;1.52;;;19.40;89.00;;;;;;5012153;28;20112;-77
2022/07/09 00:14:07;;;;;;;3.15;1.80;;;19.30;89.00;;;;;;5000190;28;20042;-77
2022/07/09 00:16:32;;;;;;;4.25;1.92;;;19.30;89.10;;;;;;5030096;28;20026;-77
2022/07/09 00:18:58;;;;;;;3.33;1.88;;;19.30;89.20;;;;;;5030037;28;20488;-78
2022/07/09 00:21:23;;;;;;;3.00;1.60;;;19.30;89.30;;;;;;4992448;28;20127;-77
2022/07/09 00:23:49;;;;;;;2.40;1.75;;;19.30;89.20;;;;;;5010426;28;20034;-77
2022/07/09 00:26:14;;;;;;;3.40;1.75;;;19.30;89.20;;;;;;4996776;28;20021;-76
2022/07/09 00:28:40;;;;;;;3.15;1.80;;;19.30;89.20;;;;;;5023768;28;20686;-77
2022/07/09 00:31:05;;;;;;;2.85;1.80;;;19.30;89.40;;;;;;5016272;28;20017;-76
2022/07/09 00:33:31;;;;;;;3.83;1.60;;;19.30;89.40;;;;;;5012077;28;20476;-77
2022/07/09 00:35:56;;;;;;;2.83;1.67;;;19.30;89.30;;;;;;5011859;28;20481;-76
2022/07/09 00:38:22;;;;;;;2.70;1.70;;;19.30;89.30;;;;;;5011789;28;20038;-77
2022/07/09 00:40:47;;;;;;;2.97;1.70;;;19.40;89.20;;;;;;5011725;28;20026;-77
2022/07/09 00:43:18;;;;;;;3.38;1.48;;;19.40;89.10;;;;;;5011837;28;20137;-77
2022/07/09 00:45:45;;;;;;;3.10;1.57;;;19.40;89.00;;;;;;5012350;28;20048;-77
2022/07/09 00:48:11;;;;;;;2.03;1.42;;;19.40;88.90;;;;;;5011853;28;20276;-77
2022/07/09 00:50:37;;;;;;;2.88;1.67;;;19.40;88.90;;;;;;5011905;28;20371;-77
2022/07/09 00:53:02;;;;;;;3.60;1.67;;;19.40;88.90;;;;;;5029106;28;20034;-76
2022/07/09 00:55:28;;;;;;;3.40;1.70;;;19.40;88.90;;;;;;5011646;28;20039;-78
2022/07/09 00:57:54;;;;;;;3.65;1.75;;;19.40;88.90;;;;;;5011828;28;20500;-78
2022/07/09 01:00:20;;;;;;;5.03;1.75;;;19.40;88.90;;;;;;5011442;28;20037;-77
2022/07/09 01:02:48;;;;;;;3.63;2.10;;;19.40;89.00;;;;;;5011266;28;20064;-77
2022/07/09 01:05:14;;;;;;;2.65;1.70;;;19.30;89.10;;;;;;5011839;28;20049;-77
2022/07/09 01:07:40;;;;;;;2.85;1.60;;;19.30;89.10;;;;;;5011560;28;20028;-77
2022/07/09 01:10:06;;;;;;;3.83;1.80;;;19.30;89.10;;;;;;5029057;28;20025;-78
2022/07/09 01:12:32;;;;;;;3.05;1.92;;;19.30;89.70;;;;;;5012613;28;20125;-79
2022/07/09 01:14:57;;;;;;;3.95;2.00;;;19.30;89.30;;;;;;5009734;28;20477;-78
2022/07/09 01:17:23;;;;;;;3.13;1.70;;;19.30;89.40;;;;;;4995224;28;20148;-79
2022/07/09 01:19:48;;;;;;;3.53;1.85;;;19.30;89.40;;;;;;5014206;28;20037;-78
2022/07/09 01:22:14;;;;;;;3.85;2.00;;;19.30;89.40;;;;;;5013034;28;20033;-79
2022/07/09 01:24:39;;;;;;;3.38;1.95;;;19.30;89.50;;;;;;5013328;28;20034;-78
2022/07/09 01:27:07;;;;;;;2.03;1.45;;;19.30;89.50;;;;;;5013184;28;20380;-79
2022/07/09 01:29:32;;;;;;;3.42;1.70;;;19.30;89.40;;;;;;5031244;28;20028;-78
2022/07/09 01:31:58;;;;;;;2.72;1.67;;;19.30;89.30;;;;;;5012804;28;20120;-79
2022/07/09 01:34:23;;;;;;;4.30;1.90;;;19.30;89.20;;;;;;5029774;28;20049;-79
2022/07/09 01:36:49;;;;;;;2.70;1.70;;;19.40;89.20;;;;;;5015349;28;20038;-79
2022/07/09 01:39:14;;;;;;;4.38;1.88;;;19.40;89.10;;;;;;5014591;28;20061;-78
2022/07/09 01:41:40;;;;;;;2.40;1.60;;;19.40;89.00;;;;;;5031890;28;20037;-78
2022/07/09 01:44:06;;;;;;;2.63;1.55;;;19.40;89.00;;;;;;5031817;28;20025;-79
2022/07/09 01:46:33;;;;;;;3.08;1.80;;;19.40;89.00;;;;;;5012400;28;20025;-78
2022/07/09 01:48:58;;;;;;;2.63;1.70;;;19.30;88.90;;;;;;5031792;28;20033;-79
2022/07/09 01:51:24;;;;;;;3.10;1.90;;;19.40;89.10;;;;;;5030457;28;20857;-79
2022/07/09 01:53:49;;;;;;;3.63;1.80;;;19.30;89.10;;;;;;5013684;28;20030;-78
2022/07/09 01:56:15;;;;;;;2.63;1.80;;;19.30;89.20;;;;;;5012817;28;20115;-78
2022/07/09 01:58:40;;;;;;;3.30;1.65;;;19.30;89.20;;;;;;5010038;28;20041;-78
2022/07/09 02:01:06;;;;;;;3.55;1.80;;;19.30;89.20;;;;;;4994107;28;20500;-79
2022/07/09 02:03:31;;;;;;;3.88;1.92;;;19.30;89.30;;;;;;5027938;28;20060;-77
2022/07/09 02:05:57;;;;;;;4.18;1.70;;;19.30;89.40;;;;;;5010347;28;20030;-76
2022/07/09 02:08:23;;;;;;;3.67;1.90;;;19.30;89.40;;;;;;5010529;28;20033;-77
2022/07/09 02:10:50;;;;;;;3.25;1.88;;;19.20;89.50;;;;;;5010524;28;20076;-77
2022/07/09 02:13:17;;;;;;;3.83;2.00;;;19.30;89.40;;;;;;5026633;28;20404;-77
2022/07/09 02:15:42;;;;;;;3.75;2.00;;;19.30;89.50;;;;;;5027645;28;20072;-76
2022/07/09 02:18:08;;;;;;;3.20;1.77;;;19.30;89.60;;;;;;5010525;28;20446;-77
2022/07/09 02:20:33;;;;;;;3.75;2.03;;;19.30;89.70;;;;;;5006789;28;20030;-77
2022/07/09 02:22:59;;;;;;;3.83;1.88;;;19.30;89.60;;;;;;5008040;28;20500;-75
2022/07/09 02:25:24;;;;;;;4.10;2.15;;;19.30;89.50;;;;;;4990586;28;20049;-76
2022/07/09 02:27:50;;;;;;;4.22;2.08;;;19.30;89.40;;;;;;5021679;28;20482;-77
2022/07/09 02:30:15;;;;;;;3.58;2.08;;;19.30;89.30;;;;;;5028119;28;20025;-77
2022/07/09 02:32:41;;;;;;;4.40;1.90;;;19.40;89.20;;;;;;5009931;28;20497;-77
2022/07/09 02:35:07;;;;;;;3.58;1.83;;;19.30;89.10;;;;;;5027418;28;20029;-77
2022/07/09 02:37:33;;;;;;;3.92;1.80;;;19.40;89.10;;;;;;5006362;28;20112;-78
2022/07/09 02:39:59;;;;;;;3.13;1.90;;;19.30;89.10;;;;;;5007135;28;20128;-78
2022/07/09 02:42:25;;;;;;;3.10;1.80;;;19.30;89.10;;;;;;5008756;28;20556;-75
2022/07/09 02:44:50;;;;;;;3.53;1.90;;;19.40;89.20;;;;;;5008523;28;20033;-76
2022/07/09 02:47:16;;;;;;;3.65;1.95;;;19.30;89.20;;;;;;5010044;28;20021;-77
2022/07/09 02:49:42;;;;;;;5.63;2.03;;;19.30;89.40;;;;;;5027757;28;20025;-79
2022/07/09 02:52:07;;;;;;;2.97;1.98;;;19.30;89.40;;;;;;5012075;28;20040;-80
2022/07/09 02:54:34;;;;;;;3.25;1.90;;;19.30;89.40;;;;;;5012585;28;20404;-79
2022/07/09 02:57:00;;;;;;;4.47;2.20;;;19.30;89.50;;;;;;5009195;28;20143;-77
2022/07/09 02:59:26;;;;;;;3.90;2.13;;;19.30;89.60;;;;;;5026430;28;20026;-77
2022/07/09 03:01:51;;;;;;;4.53;2.42;;;19.30;89.70;;;;;;5009518;28;20803;-76
2022/07/09 03:04:17;;;;;;;4.20;2.00;;;19.30;89.80;;;;;;5027521;28;20036;-76
2022/07/09 03:06:42;;;;;;;4.05;1.92;;;19.30;89.70;;;;;;5001514;28;20052;-75
2022/07/09 03:09:08;;;;;;;3.38;2.00;;;19.30;89.70;;;;;;5009586;28;20029;-77
2022/07/09 03:11:34;;;;;;;3.88;1.95;;;19.20;89.70;;;;;;5009227;28;20043;-77
2022/07/09 03:13:59;;;;;;;3.72;1.92;;;19.30;89.70;;;;;;5009747;28;20500;-77
2022/07/09 03:16:25;;;;;;;4.32;2.10;;;19.30;89.70;;;;;;5027226;28;20065;-77
2022/07/09 03:18:51;;;;;;;2.72;1.65;;;19.30;89.60;;;;;;5009717;28;20120;-77
2022/07/09 03:21:17;;;;;;;3.55;2.00;;;19.30;89.40;;;;;;5008543;28;20021;-76
2022/07/09 03:23:42;;;;;;;3.42;1.85;;;19.30;89.40;;;;;;5004115;28;20037;-76
2022/07/09 03:26:08;;;;;;;2.85;1.80;;;19.30;89.20;;;;;;4989420;28;20022;-77
2022/07/09 03:28:34;;;;;;;3.28;1.95;;;19.30;89.20;;;;;;4990102;28;20508;-77
2022/07/09 03:30:59;;;;;;;3.72;2.10;;;19.30;89.20;;;;;;4997440;28;20511;-77
2022/07/09 03:33:25;;;;;;;4.57;1.92;;;19.30;89.20;;;;;;5003748;28;20037;-78
2022/07/09 03:35:50;;;;;;;3.97;2.03;;;19.30;89.20;;;;;;5023738;28;20033;-78
2022/07/09 03:38:16;;;;;;;3.60;2.10;;;19.30;89.20;;;;;;5028089;28;20040;-79
2022/07/09 03:40:42;;;;;;;4.20;2.30;;;19.30;89.40;;;;;;5009379;28;20044;-75
2022/07/09 03:43:07;;;;;;;4.53;2.20;;;19.30;89.50;;;;;;5026859;28;20473;-77
2022/07/09 03:45:33;;;;;;;3.72;2.20;;;19.30;89.50;;;;;;5009259;28;20037;-79
2022/07/09 03:47:58;;;;;;;4.68;2.30;;;19.30;89.60;;;;;;5009738;28;20083;-78
2022/07/09 03:50:24;;;;;;;4.75;2.20;;;19.30;89.70;;;;;;5009718;28;20560;-77
2022/07/09 03:52:49;;;;;;;4.55;2.20;;;19.20;89.70;;;;;;5027673;28;20083;-78
2022/07/09 03:55:15;;;;;;;3.38;2.22;;;19.20;89.70;;;;;;5009507;28;20029;-76
2022/07/09 03:57:42;;;;;;;4.82;2.40;;;19.20;89.70;;;;;;5008219;28;20051;-77
2022/07/09 04:00:08;;;;;;;3.70;2.20;;;19.20;89.70;;;;;;5025948;28;20029;-77
2022/07/09 04:02:33;;;;;;;4.88;2.58;;;19.20;89.70;;;;;;5008414;28;20698;-76
2022/07/09 04:04:59;;;;;;;3.40;1.85;;;19.30;89.90;;;;;;5026930;28;20032;-77
2022/07/09 04:07:26;;;;;;;3.95;2.20;;;19.20;89.70;;;;;;5009205;28;20080;-77
2022/07/09 04:09:53;;;;;;;2.72;2.03;;;19.30;89.80;;;;;;5008889;28;20031;-77
2022/07/09 04:12:19;;;;;;;3.28;2.03;;;19.30;89.60;;;;;;5012073;28;20108;-77
2022/07/09 04:14:45;;;;;;;4.00;2.30;;;19.30;89.40;;;;;;5012134;28;20037;-77
2022/07/09 04:17:10;;;;;;;3.28;2.10;;;19.30;89.40;;;;;;5011961;28;20575;-77
2022/07/09 04:19:36;;;;;;;4.22;2.17;;;19.30;89.30;;;;;;5030380;28;20044;-77
2022/07/09 04:22:02;;;;;;;3.70;2.17;;;19.30;89.20;;;;;;5011928;28;20026;-78
2022/07/09 04:24:28;;;;;;;3.85;2.45;;;19.40;89.30;;;;;;5010899;28;20025;-77
2022/07/09 04:26:53;;;;;;;3.90;2.40;;;19.30;89.20;;;;;;5008343;28;20116;-74
2022/07/09 04:29:19;;;;;;;3.75;2.30;;;19.30;89.20;;;;;;4994414;28;20033;-77
2022/07/09 04:31:44;;;;;;;3.70;2.13;;;19.30;89.30;;;;;;5004553;28;20054;-78
2022/07/09 04:34:10;;;;;;;3.97;2.30;;;19.30;89.50;;;;;;5028614;28;20551;-77
2022/07/09 04:36:35;;;;;;;3.95;2.60;;;19.30;89.60;;;;;;5007721;28;20032;-77
2022/07/09 04:39:01;;;;;;;4.47;2.72;;;19.30;89.70;;;;;;5005682;28;20578;-77
2022/07/09 04:41:28;;;;;;;4.15;2.28;;;19.30;89.70;;;;;;5011318;28;20041;-77
2022/07/09 04:43:53;;;;;;;6.45;2.60;;;19.30;89.70;;;;;;5008734;28;20102;-77
2022/07/09 04:46:21;;;;;;;4.18;2.63;;;19.30;89.70;;;;;;5025043;28;20481;-77
2022/07/09 04:48:46;;;;;;;4.30;2.75;;;19.20;89.80;;;;;;5028687;28;20029;-77
2022/07/09 04:51:12;;;;;;;4.68;2.67;;;19.30;89.90;;;;;;5028766;28;20025;-77
2022/07/09 04:53:37;;;;;;;4.07;2.70;;;19.20;89.80;;;;;;5023969;28;20044;-77
2022/07/09 04:56:03;;;;;;;4.75;2.60;;;19.20;90.10;;;;;;5029482;28;20064;-76
2022/07/09 04:58:29;;;;;;;3.95;2.42;;;19.30;90.00;;;;;;5011322;28;20030;-77
2022/07/09 05:00:54;;;;;;;3.50;2.30;;;19.30;89.80;;;;;;5006412;28;20029;-76
2022/07/09 05:03:21;;;;;;;5.43;2.40;;;19.30;89.80;;;;;;5001220;28;20396;-78
2022/07/09 05:05:46;;;;;;;4.50;2.72;;;19.30;89.60;;;;;;5003826;28;20037;-77
2022/07/09 05:08:12;;;;;;;5.70;3.10;;;19.30;89.50;;;;;;5007103;28;20026;-77
2022/07/09 05:10:38;;;;;;;3.92;2.22;;;19.30;89.40;;;;;;5018194;28;20025;-76
2022/07/09 05:13:03;;;;;;;3.47;2.25;;;19.30;89.30;;;;;;5005622;28;20025;-77
2022/07/09 05:15:32;;;;;;;4.35;2.63;;;19.30;89.30;;;;;;5015688;28;20032;-77
2022/07/09 05:17:57;;;;;;;4.70;2.55;;;19.30;89.30;;;;;;5027439;28;20029;-76
2022/07/09 05:20:24;;;;;;;6.32;3.03;;;19.30;89.20;;;;;;5029259;28;20044;-77
2022/07/09 05:22:49;;;;;;;5.32;3.03;;;19.30;89.30;;;;;;5024119;28;20029;-77
2022/07/09 05:25:15;;;;;;;5.18;2.80;;;19.30;89.60;;;;;;5026434;28;20025;-76
2022/07/09 05:27:42;;;;;;;12.02;3.45;;;19.30;89.50;;;;;;5011584;28;20535;-78
2022/07/09 05:30:08;;;;;;;6.60;3.30;;;19.30;89.70;;;;;;5010076;28;20026;-77
2022/07/09 05:32:33;;;;;;;5.07;2.90;;;19.30;89.80;;;;;;5009765;28;20032;-77
2022/07/09 05:34:59;;;;;;;5.15;2.90;;;19.30;89.90;;;;;;5005036;28;20034;-77
2022/07/09 05:37:24;;;;;;;5.28;3.00;;;19.20;89.80;;;;;;5012188;28;20814;-78
2022/07/09 05:39:50;;;;;;;4.47;2.83;;;19.20;89.90;;;;;;5012654;28;20041;-80
2022/07/09 05:42:15;;;;;;;5.70;2.90;;;19.20;89.90;;;;;;5013360;28;20037;-77
2022/07/09 05:44:41;;;;;;;4.78;2.88;;;19.20;89.90;;;;;;5000691;28;20030;-77
2022/07/09 05:47:06;;;;;;;5.05;2.90;;;19.20;89.90;;;;;;5021271;28;20039;-77
2022/07/09 05:49:32;;;;;;;4.80;2.85;;;19.30;89.90;;;;;;5025092;28;20025;-78
2022/07/09 05:51:58;;;;;;;4.78;2.85;;;19.30;89.90;;;;;;5029393;28;20097;-77
2022/07/09 05:54:24;;;;;;;4.75;2.95;;;19.30;89.80;;;;;;5029200;28;20029;-77
2022/07/09 05:56:50;;;;;;;6.45;3.20;;;19.30;89.60;;;;;;5007379;28;20026;-76
2022/07/09 05:59:16;;;;;;;5.05;2.83;;;19.30;89.50;;;;;;5027636;28;20025;-77
2022/07/09 06:01:42;;;;;;;4.47;3.00;;;19.30;89.40;;;;;;5026428;28;20051;-76
2022/07/09 06:04:08;;;;;;;4.75;2.67;;;19.30;89.30;;;;;;5007170;28;20156;-76
2022/07/09 06:06:34;;;;;;;5.93;2.88;;;19.30;89.20;;;;;;5011540;28;20033;-77
2022/07/09 06:09:00;;;;;;;4.85;2.85;;;19.30;89.20;;;;;;5028912;28;20026;-77
2022/07/09 06:11:25;;;;;;;4.78;3.13;;;19.30;89.20;;;;;;5029282;28;20029;-77
2022/07/09 06:13:51;;;;;;;6.03;3.17;;;19.30;89.20;;;;;;5008939;28;20052;-78
2022/07/09 06:16:16;;;;;;;5.20;3.30;;;19.30;89.30;;;;;;5011365;28;20120;-77
2022/07/09 06:18:43;;;;;;;4.72;3.10;;;19.30;89.30;;;;;;5011090;28;20386;-78
2022/07/09 06:21:08;;;;;;;5.78;3.10;;;19.30;89.40;;;;;;5011975;28;20105;-77
2022/07/09 06:23:34;;;;;;;5.65;3.28;;;19.30;89.50;;;;;;5026795;28;20032;-77
2022/07/09 06:25:59;;;;;;;5.72;3.20;;;19.30;89.70;;;;;;5028824;28;20044;-78
2022/07/09 06:28:25;;;;;;;5.32;3.10;;;19.30;89.70;;;;;;5000485;28;20038;-76
2022/07/09 06:30:50;;;;;;;6.60;3.25;;;19.30;89.60;;;;;;4996561;28;20026;-78
2022/07/09 06:33:16;;;;;;;6.22;3.35;;;19.30;89.60;;;;;;5010421;28;20057;-77
2022/07/09 06:35:41;;;;;;;6.72;3.35;;;19.30;90.00;;;;;;5011014;28;20025;-78
2022/07/09 06:38:07;;;;;;;5.85;3.22;;;19.30;89.40;;;;;;5026890;28;20033;-78
2022/07/09 06:40:34;;;;;;;6.50;3.13;;;19.30;89.40;;;;;;5011649;28;20030;-78
2022/07/09 06:42:59;;;;;;;4.93;3.03;;;19.30;89.30;;;;;;5011078;28;20503;-76
2022/07/09 06:45:25;;;;;;;5.95;3.15;;;19.30;89.10;;;;;;5010174;28;20034;-77
2022/07/09 06:47:52;;;;;;;6.50;3.28;;;19.40;89.10;;;;;;5009104;28;20093;-77
2022/07/09 06:50:18;;;;;;;5.00;3.10;;;19.40;89.00;;;;;;5027376;28;20025;-78
2022/07/09 06:52:44;;;;;;;6.38;3.20;;;19.50;88.90;;;;;;5005278;28;20034;-78
2022/07/09 06:55:10;;;;;;;5.45;3.30;;;19.50;88.60;;;;;;5005409;28;20507;-76
2022/07/09 06:57:36;;;;;;;5.55;3.15;;;19.50;88.40;;;;;;5014798;28;20409;-77
2022/07/09 07:00:03;;;;;;;5.07;3.28;;;19.50;88.40;;;;;;5009828;28;20120;-77
2022/07/09 07:02:28;;;;;;;4.68;2.97;;;19.50;88.40;;;;;;5011680;28;20029;-77
2022/07/09 07:04:54;;;;;;;5.47;3.40;;;19.50;88.40;;;;;;5015658;28;20605;-77
2022/07/09 07:07:20;;;;;;;5.63;3.25;;;19.50;88.30;;;;;;5004990;28;20033;-77
2022/07/09 07:09:45;;;;;;;5.68;3.35;;;19.50;88.40;;;;;;5007687;28;20439;-76
2022/07/09 07:12:11;;;;;;;4.78;3.05;;;19.40;88.40;;;;;;5010143;28;20033;-80
2022/07/09 07:14:37;;;;;;;6.18;3.42;;;19.50;88.50;;;;;;5026338;28;20064;-80
2022/07/09 07:17:03;;;;;;;5.65;3.30;;;19.50;88.60;;;;;;5009813;28;20025;-78
2022/07/09 07:19:31;;;;;;;5.50;3.25;;;19.50;88.50;;;;;;5009343;28;20033;-77
2022/07/09 07:21:57;;;;;;;5.22;3.22;;;19.50;88.50;;;;;;5008302;28;20229;-76
2022/07/09 07:24:22;;;;;;;5.57;3.08;;;19.50;88.40;;;;;;5025160;28;20456;-77
2022/07/09 07:26:48;;;;;;;4.78;3.03;;;19.50;88.30;;;;;;5008287;28;20025;-76
2022/07/09 07:29:13;;;;;;;5.15;3.22;;;19.50;88.30;;;;;;5025113;28;20076;-77
2022/07/09 07:31:39;;;;;;;5.35;3.25;;;19.50;88.30;;;;;;5007904;28;20041;-78
2022/07/09 07:34:04;;;;;;;6.03;3.40;;;19.50;88.40;;;;;;5026024;28;20034;-78
2022/07/09 07:36:30;;;;;;;5.55;3.38;;;19.50;88.50;;;;;;5027194;28;20045;-78
2022/07/09 07:38:55;;;;;;;5.25;3.10;;;19.50;88.60;;;;;;5010304;28;20018;-77
2022/07/09 07:41:21;;;;;;;4.60;3.00;;;19.50;88.70;;;;;;5010464;28;20530;-77
2022/07/09 07:43:47;;;;;;;5.82;3.03;;;19.50;88.60;;;;;;5027444;28;20026;-78
2022/07/09 07:46:13;;;;;;;5.93;3.17;;;19.50;88.50;;;;;;5013323;28;20026;-78
2022/07/09 07:48:41;;;;;;;5.22;3.10;;;19.60;88.40;;;;;;5031300;28;20028;-78
2022/07/09 07:51:08;;;;;;;5.60;3.20;;;19.60;88.30;;;;;;5012542;28;20029;-76
2022/07/09 07:53:33;;;;;;;5.80;3.50;;;19.60;88.30;;;;;;5009697;28;20032;-76
2022/07/09 07:56:03;;;;;;;5.15;3.40;;;19.60;88.30;;;;;;5028048;28;20025;-75
2022/07/09 07:58:29;;;;;;;5.40;2.97;;;19.60;88.10;;;;;;5008618;28;20022;-76
2022/07/09 08:00:55;;;;;;;8.13;3.30;;;19.60;88.00;;;;;;5010551;28;20060;-75
2022/07/09 08:03:20;;;;;;;12.48;3.58;;;19.60;88.00;;;;;;5009579;28;20171;-76
2022/07/09 08:05:46;;;;;;;86.50;8.82;;;19.70;87.90;;;;;;5010250;28;20405;-75
2022/07/09 08:08:12;;;;;;;144.10;12.77;;;19.60;87.60;;;;;;5028139;28;20029;-76
2022/07/09 08:10:38;;;;;;;101.13;9.95;;;19.60;87.90;;;;;;5010030;28;20022;-76
2022/07/09 08:13:03;;;;;;;86.57;9.43;;;19.60;87.90;;;;;;5010898;28;20396;-76
2022/07/09 08:15:29;;;;;;;82.90;9.40;;;19.60;87.90;;;;;;5028760;28;20786;-76
2022/07/09 08:17:54;;;;;;;82.55;9.20;;;19.60;88.00;;;;;;5012389;28;20033;-77
2022/07/09 08:20:20;;;;;;;64.43;7.80;;;19.60;87.70;;;;;;5011338;28;20032;-76
2022/07/09 08:22:46;;;;;;;44.53;6.40;;;19.50;87.60;;;;;;5011130;28;20131;-77
2022/07/09 08:25:13;;;;;;;36.15;5.63;;;19.40;87.20;;;;;;5028702;28;20036;-76
2022/07/09 08:27:39;;;;;;;35.78;5.28;;;19.40;87.20;;;;;;4976168;28;1039103;-78
2022/07/09 08:30:05;;;;;;;30.95;5.82;;;19.30;87.20;;;;;;5013023;28;20026;-77
2022/07/09 08:32:30;;;;;;;29.67;6.35;;;19.30;87.30;;;;;;5030301;28;20167;-78
2022/07/09 08:34:56;;;;;;;27.10;6.85;;;19.30;87.40;;;;;;5031886;28;20483;-79
2022/07/09 08:37:21;;;;;;;66.05;8.90;;;19.30;87.40;;;;;;5014248;28;20120;-78
2022/07/09 08:39:47;;;;;;;38.42;7.05;;;19.30;87.80;;;;;;5031727;28;20045;-78
2022/07/09 08:42:12;;;;;;;53.78;7.82;;;19.40;87.60;;;;;;5031243;28;20060;-78
2022/07/09 08:44:42;;;;;;;52.95;7.68;;;19.50;87.40;;;;;;5029668;28;20022;-77
2022/07/09 08:47:10;;;;;;;49.80;8.40;;;19.50;87.20;;;;;;5012215;28;20432;-76
2022/07/09 08:49:37;;;;;;;43.90;8.10;;;19.50;87.00;;;;;;5012311;28;20490;-77
2022/07/09 08:52:03;;;;;;;45.70;7.68;;;19.50;87.00;;;;;;5012285;28;20034;-78
2022/07/09 08:54:30;;;;;;;44.05;7.03;;;19.50;87.00;;;;;;5029750;28;20034;-76
2022/07/09 08:56:56;;;;;;;43.53;7.15;;;19.50;87.10;;;;;;5005063;28;20043;-77
2022/07/09 08:59:21;;;;;;;46.72;8.10;;;19.50;87.20;;;;;;5024657;28;20478;-79
2022/07/09 09:01:47;;;;;;;46.28;7.28;;;19.40;87.30;;;;;;5024465;28;20036;-79
2022/07/09 09:04:12;;;;;;;35.47;7.40;;;19.40;87.40;;;;;;5029214;28;20604;-77
2022/07/09 09:06:39;;;;;;;46.17;7.55;;;19.50;87.50;;;;;;5006366;28;20026;-78
2022/07/09 09:09:08;;;;;;;31.77;6.40;;;19.50;87.60;;;;;;5024665;28;20029;-76
2022/07/09 09:11:36;;;;;;;34.38;7.13;;;19.40;87.60;;;;;;5012000;28;20095;-76
2022/07/09 09:14:02;;;;;;;39.95;7.40;;;19.40;87.70;;;;;;5011872;28;20596;-76
2022/07/09 09:16:27;;;;;;;38.83;8.27;;;19.40;87.70;;;;;;5011939;28;20152;-77
2022/07/09 09:18:53;;;;;;;37.47;6.43;;;19.40;87.80;;;;;;5029646;28;20527;-77
2022/07/09 09:21:21;;;;;;;36.00;6.85;;;19.40;87.80;;;;;;5028848;28;20052;-75
2022/07/09 09:23:55;;;;;;;37.58;7.25;;;19.40;87.90;;;;;;5010661;28;20056;-76
2022/07/09 09:26:22;;;;;;;33.88;6.63;;;19.40;88.00;;;;;;5011434;28;20036;-77
2022/07/09 09:28:53;;;;;;;25.92;6.03;;;19.50;87.90;;;;;;5028666;28;20029;-76
2022/07/09 09:31:26;;;;;;;31.23;6.57;;;19.50;87.80;;;;;;5028742;28;20427;-74
2022/07/09 09:34:08;;;;;;;31.58;6.53;;;19.50;87.70;;;;;;5011024;28;20120;-76
2022/07/09 09:36:36;;;;;;;28.55;7.20;;;19.50;87.60;;;;;;5011190;28;20096;-76
2022/07/09 09:39:26;;;;;;;31.92;6.30;;;19.60;87.50;;;;;;5004291;28;20030;-76
2022/07/09 09:41:53;;;;;;;22.35;5.97;;;19.50;87.50;;;;;;5010995;28;20029;-76
2022/07/09 09:44:25;;;;;;;26.48;6.30;;;19.50;87.50;;;;;;5010849;28;20026;-76
2022/07/09 09:46:52;;;;;;;25.67;6.68;;;19.50;87.60;;;;;;5029315;28;20033;-77
2022/07/09 09:49:18;;;;;;;27.20;5.47;;;19.50;87.80;;;;;;5027989;28;20087;-75
2022/07/09 09:51:54;;;;;;;24.70;5.03;;;19.50;87.70;;;;;;5010801;28;20500;-77
2022/07/09 09:54:21;;;;;;;26.40;5.43;;;19.50;88.10;;;;;;5028677;28;20504;-77
2022/07/09 09:56:47;;;;;;;19.42;4.60;;;19.40;88.10;;;;;;5008078;28;20034;-77
2022/07/09 09:59:13;;;;;;;23.20;5.43;;;19.50;88.00;;;;;;5009660;28;20054;-76
2022/07/09 10:01:41;;;;;;;24.92;5.30;;;19.50;88.00;;;;;;4991892;28;20065;-76
2022/07/09 10:04:06;;;;;;;19.73;5.10;;;19.50;87.90;;;;;;5026164;28;20030;-76
2022/07/09 10:06:33;;;;;;;19.98;4.82;;;19.50;87.90;;;;;;5028873;28;20052;-80
2022/07/09 10:09:02;;;;;;;22.23;5.65;;;19.50;87.80;;;;;;5011191;28;20029;-76
2022/07/09 10:11:41;;;;;;;20.80;4.85;;;19.50;87.80;;;;;;5007655;28;20029;-75
2022/07/09 10:14:07;;;;;;;16.25;5.20;;;19.50;87.80;;;;;;5001693;28;20034;-76
2022/07/09 10:16:37;;;;;;;17.73;4.55;;;19.50;87.80;;;;;;5027049;28;20124;-76
2022/07/09 10:19:03;;;;;;;19.65;4.90;;;19.50;87.80;;;;;;5007665;28;20160;-75
2022/07/09 10:21:40;;;;;;;16.08;4.30;;;19.60;87.80;;;;;;5021435;28;20104;-74
2022/07/09 10:24:09;;;;;;;17.20;4.60;;;19.60;87.60;;;;;;5008382;28;20036;-76
2022/07/09 10:26:49;;;;;;;18.63;4.38;;;19.60;87.40;;;;;;5026773;28;20587;-76
2022/07/09 10:29:28;;;;;;;17.77;4.55;;;19.70;87.30;;;;;;5010600;28;20439;-76
2022/07/09 10:31:55;;;;;;;19.75;4.60;;;19.70;87.10;;;;;;5027194;28;20029;-76
2022/07/09 10:34:46;;;;;;;14.27;4.50;;;19.70;87.00;;;;;;5007650;28;20361;-76
2022/07/09 10:37:11;;;;;;;16.83;4.57;;;19.70;87.10;;;;;;5008223;28;20091;-77
2022/07/09 10:39:37;;;;;;;17.23;5.13;;;19.70;87.20;;;;;;5026321;28;20427;-75
2022/07/09 10:42:19;;;;;;;17.02;4.80;;;19.70;87.20;;;;;;5024581;28;20025;-75
2022/07/09 10:44:45;;;;;;;14.10;4.18;;;19.70;87.30;;;;;;5024007;28;20562;-76
2022/07/09 10:47:11;;;;;;;15.48;4.18;;;19.70;87.30;;;;;;5006451;28;20088;-74
2022/07/09 10:49:37;;;;;;;12.80;4.28;;;19.70;87.40;;;;;;5018203;28;20026;-75
2022/07/09 10:52:05;;;;;;;14.50;4.20;;;19.70;87.40;;;;;;5004239;28;20601;-75
2022/07/09 10:54:31;;;;;;;15.43;4.05;;;19.70;87.40;;;;;;5023494;28;20032;-74
2022/07/09 10:56:57;;;;;;;15.02;4.60;;;19.70;87.50;;;;;;5024181;28;20029;-75
2022/07/09 10:59:23;;;;;;;14.10;3.85;;;19.70;87.40;;;;;;5024623;28;20060;-75
2022/07/09 11:01:50;;;;;;;13.70;4.47;;;19.80;87.40;;;;;;5007189;28;20128;-75
2022/07/09 11:04:26;;;;;;;13.45;4.18;;;19.70;87.30;;;;;;4998096;28;20516;-75
2022/07/09 11:06:52;;;;;;;13.82;3.90;;;19.70;87.30;;;;;;5023835;28;20056;-75
2022/07/09 11:09:17;;;;;;;11.75;4.15;;;19.70;87.50;;;;;;5006418;28;20029;-75
2022/07/09 11:11:44;;;;;;;13.27;4.13;;;19.70;87.50;;;;;;5020009;28;20033;-75
2022/07/09 11:14:10;;;;;;;11.48;3.95;;;19.70;87.50;;;;;;5001364;28;20032;-75
2022/07/09 11:16:36;;;;;;;13.20;4.13;;;19.70;87.40;;;;;;5008534;28;20028;-75
2022/07/09 11:19:21;;;;;;;13.13;4.43;;;19.80;87.30;;;;;;5022121;28;20389;-72
2022/07/09 11:21:48;;;;;;;10.45;3.75;;;19.80;87.00;;;;;;5024361;28;20552;-75
2022/07/09 11:24:19;;;;;;;14.48;4.00;;;19.80;86.90;;;;;;5029282;28;20511;-75
2022/07/09 11:26:45;;;;;;;13.13;3.67;;;19.90;86.80;;;;;;5003463;28;20490;-75
2022/07/09 11:29:14;;;;;;;10.52;3.63;;;19.80;86.70;;;;;;5025792;28;20132;-73
2022/07/09 11:31:51;;;;;;;12.90;4.00;;;19.90;86.80;;;;;;5009018;28;20036;-75
2022/07/09 11:34:18;;;;;;;14.40;4.32;;;19.90;87.00;;;;;;5004595;28;20029;-75
2022/07/09 11:36:45;;;;;;;16.75;3.85;;;19.90;87.00;;;;;;5021802;28;20018;-75
2022/07/09 11:39:35;;;;;;;12.52;3.67;;;19.90;87.00;;;;;;5009462;28;20029;-75
2022/07/09 11:42:02;;;;;;;12.93;3.70;;;19.90;87.00;;;;;;5027432;28;20026;-75
2022/07/09 11:44:35;;;;;;;13.50;3.97;;;19.80;87.10;;;;;;5009580;28;20014;-75
2022/07/09 11:47:21;;;;;;;14.07;3.88;;;19.80;87.30;;;;;;5010470;28;20022;-75
2022/07/09 11:49:48;;;;;;;16.13;4.20;;;19.80;87.40;;;;;;5009786;28;20545;-75
2022/07/09 11:52:24;;;;;;;11.30;3.60;;;19.80;87.40;;;;;;5003122;28;20064;-72
2022/07/09 11:55:06;;;;;;;12.45;3.50;;;19.70;87.40;;;;;;5007537;28;20029;-75
2022/07/09 11:57:34;;;;;;;14.23;3.70;;;19.70;87.50;;;;;;5010200;28;20278;-74
2022/07/09 12:00:01;;;;;;;8.05;3.15;;;19.70;87.60;;;;;;5009942;28;20030;-78
2022/07/09 12:02:36;;;;;;;8.90;3.47;;;19.80;87.60;;;;;;5027443;28;20064;-75
2022/07/09 12:05:08;;;;;;;12.80;3.80;;;19.70;87.70;;;;;;5027308;28;20554;-75
2022/07/09 12:07:35;;;;;;;9.68;3.67;;;19.70;87.70;;;;;;5010008;28;20048;-74
2022/07/09 12:10:05;;;;;;;9.43;3.30;;;19.80;87.60;;;;;;5028022;28;20030;-75
2022/07/09 12:12:33;;;;;;;10.15;3.40;;;19.80;87.40;;;;;;5027864;28;20488;-74
2022/07/09 12:14:59;;;;;;;9.82;3.25;;;19.90;87.30;;;;;;5007973;28;20132;-74
2022/07/09 12:17:26;;;;;;;13.23;3.60;;;19.80;87.10;;;;;;5007705;28;20859;-73
2022/07/09 12:19:53;;;;;;;10.65;3.40;;;19.90;87.00;;;;;;5023943;28;20040;-75
2022/07/09 12:22:18;;;;;;;9.95;3.38;;;19.80;86.90;;;;;;5005356;28;20030;-74
2022/07/09 12:24:44;;;;;;;10.43;2.97;;;19.80;87.00;;;;;;5001650;28;20031;-72
2022/07/09 12:27:10;;;;;;;9.25;3.22;;;19.80;87.00;;;;;;5020835;28;20113;-75
2022/07/09 12:29:36;;;;;;;11.75;3.85;;;19.80;87.10;;;;;;5013706;28;20029;-74
2022/07/09 12:32:02;;;;;;;9.88;3.20;;;19.80;87.10;;;;;;5003725;28;20072;-75
2022/07/09 12:34:27;;;;;;;11.07;3.30;;;19.80;87.10;;;;;;5008312;28;20029;-75
2022/07/09 12:36:56;;;;;;;8.57;3.00;;;19.80;87.20;;;;;;5006332;28;20142;-74
2022/07/09 12:39:22;;;;;;;7.93;2.97;;;19.80;87.20;;;;;;5008196;28;20053;-74
2022/07/09 12:41:47;;;;;;;7.63;3.25;;;19.80;87.20;;;;;;5026242;28;20467;-74